Mobile Regional Airport
KMOB : now visible

Airfield :











YOU CAN JOIN US ON...

 
LOGIN :

Register | Disclaimer

   EN    FR    IT 

 









Legend :    VFR   Marginal VFR   IFR   Intensive IFR   Very Intensive IFR
Visi :
Ceiling :
>= 8 km
>= 3000ft
5 to 8 km
1000 to 3000 ft
1500m to 5 km
500 to 1000 ft
800 to 1500m
200 to 500 ft
< 800m
< 200 ft
Symbols :   Thunderstorms  Fog  Heavy snow  Heavy precipitations  Wind > 20 kt







- Airport Elevation : 219 ft
- IATA code : MOB


KMOB - Mobile Regional

CURRENT METAR :
  • 160915Z AUTO 24006KT 10SM BKN011 OVC055 18/17 A2982 RMK AO2 T01830172

EXPIRED METARs :
  • 160856Z AUTO 25006KT 10SM SCT011 OVC055 18/17 A2981 RMK AO2 SLP092 T01830167 58012
  • 160756Z AUTO 23006KT 10SM OVC055 18/17 A2983 RMK AO2 SLP097 T01830167
  • 160656Z AUTO 24007KT 10SM SCT031 BKN035 OVC055 18/17 A2985 RMK AO2 SLP106 T01830167

TAF KMOB
Valid from the 16 at 10:00 until the 17 at 06:00 UTC


160930Z 1610/1706 21009KT P6SM BKN011 OVC050
FM161200 24005KT P6SM OVC015
FM161500 29006KT P6SM OVC015
FM161800 32004KT P6SM OVC025
FM162100 VRB04KT P6SM OVC040
KZHU FIR / North America



MET'MAP, your aeronautical weather chart ! - Copyright ORBIFLY December 2007 - Disclaimer

ORBIFLY MET'MAP TEAM :

Programming & Development : Alexandra Zaïnal
Concept & Development : Baudouin d'Aumeries
Co-Development & Prog : Marc-Olivier Méhu
Technical & hardware support : Manuel Goepfert

Contact : metmap@orbifly.com




SOURCES & CREDITS :

   NOAA       Earth
Advisory